LFLY 171030Z AUTO 18019KT CAVOK 14/09 Q1022 BECMG 19020G35KT

ElémentsDécodage
LFLY Station météo située sur l'aérodrome de LYON Bron
171030Z émis le 17 du mois à 10h30 UTC
AUTO Bulletin édité par un automate
18019KT vent du 180°, 19 noeuds
CAVOK Ceiling And Visibility OK
- Visibilité de 10 Km ou plus
- Pas de nuage au-dessous de 1500m ou au-dessous de l'altitude minimale du secteur la plus élevée (si>1500m) et absence de CB
- pas de temps présent significatif
14/09 température 14°C, point de rosée 09°C
 soit une humidité relative de 72%
Q1022 la pression au niveau de la mer (QNH) est de 1022 hPa
BECMG fluctuation du temps prévue
19020G35KT vent du 190°, moyenne: 20 noeuds, avec rafales à 35 noeuds